createdAt,value
2023-02-08T00:02:02.354Z,11.38
2023-02-08T00:07:09.990Z,13.07
2023-02-08T00:12:16.239Z,12.57
2023-02-08T00:17:22.700Z,12.75
2023-02-08T00:22:30.762Z,11.80
2023-02-08T00:27:37.224Z,9.37
2023-02-08T00:32:43.490Z,8.80
2023-02-08T00:37:52.618Z,9.13
2023-02-08T00:42:58.644Z,15.63
2023-02-08T00:48:05.044Z,16.88
2023-02-08T00:53:12.536Z,18.58
2023-02-08T00:58:18.491Z,13.32
2023-02-08T01:03:25.731Z,10.40
2023-02-08T01:08:33.703Z,10.30
2023-02-08T01:13:40.875Z,13.10
2023-02-08T01:18:51.601Z,13.73
2023-02-08T01:23:59.614Z,15.13
2023-02-08T01:29:06.681Z,14.23
2023-02-08T01:34:13.761Z,10.25
2023-02-08T01:39:24.082Z,11.52
2023-02-08T01:45:23.630Z,21.08
2023-02-08T01:50:36.776Z,14.07
2023-02-08T01:55:49.905Z,16.67
2023-02-08T02:00:56.493Z,11.82
2023-02-08T02:06:10.070Z,14.13
2023-02-08T02:11:20.107Z,17.08
2023-02-08T02:16:26.314Z,6.68
2023-02-08T02:21:47.682Z,16.67
2023-02-08T02:27:33.248Z,14.02
2023-02-08T02:33:18.597Z,20.08
2023-02-08T02:38:41.266Z,17.02
2023-02-08T02:43:53.693Z,11.50
2023-02-08T02:49:07.584Z,12.57
2023-02-08T02:54:20.273Z,14.15
2023-02-08T02:59:28.780Z,14.45
2023-02-08T03:04:54.707Z,12.25
2023-02-08T03:10:14.793Z,15.57
2023-02-08T03:15:32.088Z,14.02
2023-02-08T03:20:44.640Z,16.20
2023-02-08T03:25:55.701Z,12.68
2023-02-08T03:31:12.403Z,11.25
2023-02-08T03:36:28.883Z,12.93
2023-02-08T03:41:40.747Z,12.73
2023-02-08T03:46:53.894Z,11.07
2023-02-08T03:52:06.890Z,15.65
2023-02-08T03:57:19.461Z,14.38
2023-02-08T04:02:30.225Z,17.70
2023-02-08T04:07:38.320Z,36.53
2023-02-08T04:12:44.561Z,29.47
2023-02-08T04:17:50.606Z,27.27
2023-02-08T04:22:58.570Z,28.17
2023-02-08T04:33:13.354Z,24.98
2023-02-08T04:38:21.212Z,24.80
2023-02-08T04:43:27.402Z,23.45
2023-02-08T04:48:33.813Z,13.88
2023-02-08T04:53:41.378Z,21.40
2023-02-08T04:58:48.775Z,18.50
2023-02-08T05:03:54.850Z,14.38
2023-02-08T05:09:02.385Z,16.98
2023-02-08T05:14:08.696Z,19.10
2023-02-08T05:19:14.803Z,19.05
2023-02-08T05:24:22.324Z,23.75
2023-02-08T05:29:28.457Z,22.58
2023-02-08T05:34:36.266Z,24.38
2023-02-08T05:39:44.260Z,18.27
2023-02-08T05:44:50.689Z,16.80
2023-02-08T05:49:56.875Z,18.95
2023-02-08T05:55:06.439Z,14.02
2023-02-08T06:00:14.522Z,16.77
2023-02-08T06:05:23.692Z,21.65
2023-02-08T06:10:31.616Z,18.17
2023-02-08T06:15:37.907Z,16.83
2023-02-08T06:20:44.364Z,21.80
2023-02-08T06:25:53.953Z,19.33
2023-02-08T06:31:00.495Z,12.57
2023-02-08T06:36:07.511Z,21.55
2023-02-08T06:41:15.220Z,21.77
2023-02-08T06:46:23.369Z,15.43
2023-02-08T06:51:29.720Z,15.95
2023-02-08T06:56:37.160Z,17.85
2023-02-08T07:01:43.475Z,16.08
2023-02-08T07:06:50.904Z,14.38
2023-02-08T07:11:58.478Z,18.23
2023-02-08T07:17:05.130Z,20.17
2023-02-08T07:22:11.670Z,20.83
2023-02-08T07:27:19.634Z,28.42
2023-02-08T07:32:25.974Z,20.67
2023-02-08T07:37:33.475Z,24.92
2023-02-08T07:42:40.986Z,27.13
2023-02-08T07:48:07.527Z,23.98
2023-02-08T07:53:13.870Z,25.98
2023-02-08T07:58:21.531Z,31.20
2023-02-08T08:03:29.192Z,31.55
2023-02-08T08:08:35.660Z,45.63
2023-02-08T08:13:43.497Z,65.05
2023-02-08T08:18:51.122Z,50.33
2023-02-08T08:23:57.315Z,71.35
2023-02-08T08:29:06.745Z,49.92
2023-02-08T08:34:13.077Z,52.20
2023-02-08T08:39:19.711Z,56.75
2023-02-08T08:44:27.447Z,46.25
2023-02-08T08:49:33.904Z,38.58
2023-02-08T08:54:40.497Z,44.17
2023-02-08T08:59:48.320Z,51.13
2023-02-08T09:04:54.653Z,66.10
2023-02-08T09:10:00.751Z,63.08
2023-02-08T09:15:09.923Z,53.22
2023-02-08T09:20:16.280Z,45.25
2023-02-08T09:25:22.552Z,38.83
2023-02-08T09:30:30.482Z,44.67
2023-02-08T09:35:36.874Z,34.83
2023-02-08T09:40:57.120Z,39.03
2023-02-08T09:46:10.000Z,34.65
2023-02-08T09:51:29.618Z,28.02
2023-02-08T09:56:40.735Z,40.05
2023-02-08T10:01:52.249Z,33.70
2023-02-08T10:06:58.625Z,33.13
2023-02-08T10:12:16.967Z,34.75
2023-02-08T10:17:53.357Z,22.80
2023-02-08T10:23:13.828Z,27.63
2023-02-08T10:28:49.652Z,27.08
2023-02-08T10:34:08.128Z,32.55
2023-02-08T10:39:20.175Z,31.05
2023-02-08T10:44:38.029Z,32.30
2023-02-08T10:49:56.858Z,34.03
2023-02-08T10:55:03.595Z,31.60
2023-02-08T11:00:19.607Z,40.95
2023-02-08T11:05:37.727Z,33.60
2023-02-08T11:10:48.410Z,35.90
2023-02-08T11:15:57.971Z,34.75
2023-02-08T11:21:11.486Z,30.48
2023-02-08T11:26:22.585Z,34.63
2023-02-08T11:31:29.031Z,31.20
2023-02-08T11:36:38.993Z,33.78
2023-02-08T11:41:47.655Z,33.58
2023-02-08T11:46:55.830Z,37.17
2023-02-08T11:52:04.006Z,26.23
2023-02-08T11:57:20.852Z,26.35
2023-02-08T12:02:38.833Z,32.15
2023-02-08T12:08:12.889Z,31.93
2023-02-08T12:14:03.436Z,30.20
2023-02-08T12:20:01.220Z,36.25
2023-02-08T12:25:30.227Z,25.17
2023-02-08T12:30:42.034Z,16.35
2023-02-08T12:36:25.365Z,17.40
2023-02-08T12:41:39.692Z,12.73
2023-02-08T12:47:08.101Z,11.40
2023-02-08T12:52:31.813Z,15.35
2023-02-08T12:57:43.459Z,11.48
2023-02-08T13:03:00.554Z,12.52
2023-02-08T13:08:28.294Z,11.95
2023-02-08T13:13:40.559Z,9.73
2023-02-08T13:18:54.637Z,9.70
2023-02-08T13:24:02.025Z,11.40
2023-02-08T13:29:17.730Z,13.60
2023-02-08T13:34:34.356Z,8.68
2023-02-08T13:39:46.578Z,10.95
2023-02-08T13:44:57.940Z,7.53
2023-02-08T13:50:10.069Z,7.93
2023-02-08T13:55:46.120Z,7.20
2023-02-08T14:01:20.721Z,9.02
2023-02-08T14:06:31.081Z,7.38
2023-02-08T14:11:49.700Z,6.75
2023-02-08T14:17:21.807Z,5.53
2023-02-08T14:22:38.014Z,5.43
2023-02-08T14:27:53.017Z,5.28
2023-02-08T14:33:20.050Z,5.32
2023-02-08T14:39:25.146Z,7.43
2023-02-08T14:45:03.897Z,5.05
2023-02-08T14:50:20.713Z,9.48
2023-02-08T14:55:32.147Z,16.38
2023-02-08T15:00:40.632Z,8.43
2023-02-08T15:06:26.219Z,7.97
2023-02-08T15:11:36.635Z,8.85
2023-02-08T15:16:45.285Z,8.77
2023-02-08T15:21:53.318Z,5.30
2023-02-08T15:26:59.955Z,7.73
2023-02-08T15:32:13.815Z,8.27
2023-02-08T15:37:22.322Z,11.82
2023-02-08T15:42:31.844Z,10.32
2023-02-08T15:47:40.289Z,22.77
2023-02-08T15:52:49.744Z,23.52
2023-02-08T15:58:03.166Z,31.88
2023-02-08T16:03:18.218Z,51.28
2023-02-08T16:08:29.167Z,42.72
2023-02-08T16:13:40.654Z,62.00
2023-02-08T16:18:50.435Z,48.65
2023-02-08T16:24:00.274Z,69.20
2023-02-08T16:29:09.653Z,71.15
2023-02-08T16:34:21.471Z,89.70
2023-02-08T16:39:58.464Z,118.10
2023-02-08T16:45:22.947Z,116.93
2023-02-08T16:50:30.800Z,159.05
2023-02-08T16:55:39.828Z,177.63
2023-02-08T17:00:47.159Z,167.73
2023-02-08T17:05:55.101Z,169.70
2023-02-08T17:11:03.732Z,137.77
2023-02-08T17:16:16.663Z,144.15
2023-02-08T17:21:24.180Z,158.07
2023-02-08T17:26:42.623Z,130.57
2023-02-08T17:31:51.913Z,132.70
2023-02-08T17:36:59.357Z,126.40
2023-02-08T17:42:12.650Z,135.27
2023-02-08T17:47:21.071Z,118.38
2023-02-08T17:52:29.482Z,162.50
2023-02-08T17:57:41.686Z,144.25
2023-02-08T18:02:52.423Z,111.75
2023-02-08T18:08:00.194Z,128.77
2023-02-08T18:13:11.763Z,116.85
2023-02-08T18:18:21.063Z,117.93
2023-02-08T18:23:29.641Z,110.88
2023-02-08T18:28:39.529Z,96.10
2023-02-08T18:33:48.224Z,112.45
2023-02-08T18:39:00.994Z,88.68
2023-02-08T18:44:13.412Z,82.70
2023-02-08T18:49:22.517Z,79.28
2023-02-08T18:54:31.917Z,69.32
2023-02-08T18:59:42.833Z,81.22
2023-02-08T19:04:52.005Z,96.65
2023-02-08T19:10:08.401Z,94.93
2023-02-08T19:15:20.796Z,102.68
2023-02-08T19:20:32.600Z,115.88
2023-02-08T19:25:43.260Z,146.20
2023-02-08T19:30:54.337Z,130.63
2023-02-08T19:36:11.803Z,180.55
2023-02-08T19:41:24.396Z,138.90
2023-02-08T19:46:36.613Z,121.65
2023-02-08T19:51:44.810Z,111.97
2023-02-08T19:56:55.555Z,179.35
2023-02-08T20:02:07.836Z,139.20
2023-02-08T20:07:16.922Z,145.10
2023-02-08T20:12:26.409Z,108.47
2023-02-08T20:22:45.926Z,160.88
2023-02-08T20:28:01.119Z,225.43
2023-02-08T20:33:11.205Z,191.20
2023-02-08T20:38:23.068Z,236.02
2023-02-08T20:43:31.222Z,179.57
2023-02-08T20:48:41.546Z,122.10
2023-02-08T20:53:54.244Z,122.93
2023-02-08T20:59:06.971Z,122.07
2023-02-08T21:04:20.605Z,115.93
2023-02-08T21:09:29.106Z,170.25
2023-02-08T21:14:36.741Z,98.50
2023-02-08T21:19:44.798Z,134.32
2023-02-08T21:24:52.270Z,191.17
2023-02-08T21:29:59.680Z,179.30
2023-02-08T21:35:08.612Z,172.35
2023-02-08T21:40:15.424Z,171.63
2023-02-08T21:45:22.098Z,163.43
2023-02-08T21:50:48.231Z,154.15
2023-02-08T21:55:54.700Z,151.00
2023-02-08T22:01:01.073Z,141.18
2023-02-08T22:06:27.199Z,155.52
2023-02-08T22:11:33.573Z,186.45
2023-02-08T22:16:40.434Z,158.43
2023-02-08T22:21:47.999Z,194.48
2023-02-08T22:26:54.374Z,192.40
2023-02-08T22:32:01.381Z,157.05
2023-02-08T22:37:09.665Z,189.45
2023-02-08T22:42:15.834Z,142.63
2023-02-08T22:47:22.363Z,153.82
2023-02-08T22:52:30.648Z,156.02
2023-02-08T22:57:38.025Z,133.75
2023-02-08T23:02:44.227Z,144.82
2023-02-08T23:07:52.189Z,116.68
2023-02-08T23:12:58.407Z,126.47
2023-02-08T23:18:04.855Z,125.50
2023-02-08T23:23:12.663Z,128.07
2023-02-08T23:28:18.866Z,101.70
2023-02-08T23:33:24.954Z,114.20
2023-02-08T23:38:32.876Z,104.50
2023-02-08T23:43:39.590Z,85.65
2023-02-08T23:48:47.901Z,104.40
2023-02-08T23:53:56.145Z,103.40
2023-02-08T23:59:02.669Z,99.63
